| time (UTC) | temp C | wind direction | speed KPH | gust KPH | rain 1hr cm | rain 24hr cm | rain mn cm | humidity % | barometer mb |
| 20260902014919 | 31 | 111 | 0.0 | 0.0 | 0.00 | 0.03 | 0.00 | 52 | 1014.4 |
| 20260902014413 | 31 | 111 | 0.0 | 0.0 | 0.00 | 0.03 | 0.00 | 51 | 1014.4 |
| 20260902014137 | 31 | 111 | 0.0 | 0.0 | 0.00 | 0.03 | 0.00 | 51 | 1014.4 |
| 20260902013401 | 31 | 111 | 0.0 | 0.0 | 0.00 | 0.03 | 0.00 | 50 | 1014.3 |
| 20260902012855 | 32 | 111 | 0.0 | 0.0 | 0.00 | 0.03 | 0.00 | 50 | 1014.3 |
| 20260902012349 | 32 | 111 | 0.0 | 0.0 | 0.00 | 0.03 | 0.00 | 49 | 1014.3 |
| 20260902012113 | 32 | 111 | 0.0 | 0.0 | 0.00 | 0.03 | 0.00 | 49 | 1014.3 |
| 20260902011336 | 32 | 111 | 0.0 | 0.0 | 0.00 | 0.03 | 0.00 | 49 | 1014.3 |
| 20260902010831 | 32 | 111 | 0.0 | 0.0 | 0.00 | 0.03 | 0.00 | 48 | 1014.2 |
| 20260902010324 | 32 | 111 | 0.0 | 0.0 | 0.00 | 0.03 | 0.00 | 48 | 1014.2 |
| 20260902005819 | 32 | 111 | 0.0 | 0.0 | 0.00 | 0.03 | 0.00 | 48 | 1014.2 |
| 20260902005317 | 32 | 111 | 0.0 | 0.0 | 0.00 | 0.03 | 0.00 | 48 | 1014.1 |
| 20260902004806 | 33 | 111 | 0.0 | 0.0 | 0.00 | 0.03 | 0.00 | 48 | 1014.1 |
| 20260902004301 | 33 | 111 | 0.0 | 0.0 | 0.00 | 0.03 | 0.00 | 47 | 1014.1 |
| 20260902004025 | 33 | 111 | 0.0 | 0.0 | 0.00 | 0.03 | 0.00 | 47 | 1014.1 |
| 20260902003249 | 33 | 111 | 0.0 | 0.0 | 0.00 | 0.03 | 0.00 | 47 | 1014.2 |
| 20260902002743 | 33 | 111 | 0.0 | 0.0 | 0.00 | 0.03 | 0.00 | 46 | 1014.1 |
| 20260902002237 | 33 | 111 | 0.0 | 3.2 | 0.00 | 0.03 | 0.00 | 46 | 1014.1 |
| 20260902001731 | 33 | 111 | 0.0 | 4.8 | 0.00 | 0.03 | 0.00 | 46 | 1014.1 |
| 20260902001225 | 34 | 111 | 1.6 | 6.4 | 0.00 | 0.03 | 0.00 | 46 | 1014.1 |
| 20260902000718 | 34 | 110 | 1.6 | 9.7 | 0.00 | 0.03 | 0.00 | 45 | 1014.1 |
| 20260902000444 | 34 | 113 | 1.6 | 9.7 | 0.00 | 0.03 | 0.00 | 45 | 1014.1 |
| 20260901235707 | 35 | 112 | 1.6 | 9.7 | 0.00 | 0.03 | 0.00 | 44 | 1014.1 |
| 20260901235201 | 35 | 107 | 3.2 | 9.7 | 0.00 | 0.03 | 0.00 | 44 | 1014.1 |
| 20260901234922 | 35 | 129 | 1.6 | 8.0 | 0.00 | 0.03 | 0.00 | 43 | 1014.1 |
| 20260901234146 | 35 | 160 | 1.6 | 8.0 | 0.00 | 0.03 | 0.00 | 43 | 1014.2 |
| 20260901233640 | 35 | 161 | 1.6 | 8.0 | 0.00 | 0.03 | 0.00 | 42 | 1014.2 |
| 20260901233140 | 35 | 161 | 3.2 | 9.7 | 0.00 | 0.03 | 0.00 | 42 | 1014.2 |
| 20260901232638 | 35 | 162 | 3.2 | 11.3 | 0.00 | 0.03 | 0.00 | 42 | 1014.2 |
| 20260901232135 | 35 | 164 | 3.2 | 11.3 | 0.00 | 0.03 | 0.00 | 41 | 1014.3 |
| 20260901231636 | 35 | 167 | 3.2 | 12.9 | 0.00 | 0.03 | 0.00 | 41 | 1014.3 |
| 20260901231408 | 35 | 116 | 3.2 | 12.9 | 0.00 | 0.03 | 0.00 | 41 | 1014.2 |
| 20260901230634 | 35 | 98 | 3.2 | 9.7 | 0.00 | 0.03 | 0.00 | 41 | 1014.3 |
| 20260901230134 | 35 | 123 | 3.2 | 12.9 | 0.00 | 0.03 | 0.00 | 41 | 1014.3 |
| 20260901225904 | 35 | 142 | 3.2 | 12.9 | 0.00 | 0.03 | 0.00 | 41 | 1014.4 |
| 20260901225134 | 35 | 80 | 1.6 | 8.0 | 0.00 | 0.03 | 0.00 | 41 | 1014.4 |
| 20260901224905 | 35 | 59 | 1.6 | 6.4 | 0.00 | 0.03 | 0.00 | 41 | 1014.4 |
| 20260901224134 | 35 | 122 | 3.2 | 11.3 | 0.00 | 0.03 | 0.00 | 41 | 1014.4 |
| 20260901223634 | 35 | 126 | 3.2 | 11.3 | 0.00 | 0.03 | 0.00 | 41 | 1014.4 |
| 20260901223134 | 35 | 168 | 3.2 | 12.9 | 0.00 | 0.03 | 0.00 | 40 | 1014.4 |
| 20260901222633 | 36 | 130 | 3.2 | 12.9 | 0.00 | 0.03 | 0.00 | 40 | 1014.3 |
| 20260901222133 | 36 | 88 | 1.6 | 6.4 | 0.00 | 0.03 | 0.00 | 39 | 1014.3 |
| 20260901221634 | 36 | 95 | 1.6 | 6.4 | 0.00 | 0.03 | 0.00 | 41 | 1014.3 |
| 20260901221134 | 36 | 96 | 3.2 | 12.9 | 0.00 | 0.03 | 0.00 | 40 | 1014.4 |
| 20260901220905 | 36 | 136 | 3.2 | 12.9 | 0.00 | 0.03 | 0.00 | 40 | 1014.4 |
| 20260901220134 | 36 | 109 | 4.8 | 14.5 | 0.00 | 0.03 | 0.00 | 40 | 1014.4 |
| 20260901215639 | 36 | 113 | 4.8 | 14.5 | 0.00 | 0.03 | 0.00 | 41 | 1014.3 |
| 20260901215135 | 36 | 150 | 3.2 | 12.9 | 0.00 | 0.03 | 0.00 | 41 | 1014.4 |
| 20260901214636 | 36 | 156 | 3.2 | 12.9 | 0.00 | 0.03 | 0.00 | 42 | 1014.4 |
| 20260901214137 | 36 | 171 | 3.2 | 12.9 | 0.00 | 0.03 | 0.00 | 41 | 1014.5 |
| 20260901213634 | 35 | 98 | 4.8 | 14.5 | 0.00 | 0.03 | 0.00 | 42 | 1014.5 |
| 20260901213131 | 36 | 105 | 3.2 | 14.5 | 0.00 | 0.03 | 0.00 | 43 | 1014.6 |
| 20260901212629 | 35 | 108 | 3.2 | 11.3 | 0.00 | 0.03 | 0.00 | 42 | 1014.7 |
| 20260901212127 | 36 | 120 | 4.8 | 12.9 | 0.00 | 0.03 | 0.00 | 42 | 1014.7 |
| 20260901211626 | 36 | 85 | 3.2 | 12.9 | 0.00 | 0.03 | 0.00 | 43 | 1014.8 |
| 20260901211129 | 35 | 11 | 1.6 | 6.4 | 0.00 | 0.03 | 0.00 | 43 | 1014.8 |
| 20260901210625 | 35 | 5 | 1.6 | 8.0 | 0.00 | 0.03 | 0.00 | 42 | 1014.9 |
| 20260901205626 | 35 | 163 | 4.8 | 12.9 | 0.00 | 0.03 | 0.00 | 41 | 1015.2 |
| 20260901205126 | 35 | 164 | 4.8 | 14.5 | 0.00 | 0.03 | 0.00 | 42 | 1015.4 |
| 20260901204626 | 36 | 182 | 1.6 | 14.5 | 0.00 | 0.03 | 0.00 | 42 | 1015.4 |
| 20260901204123 | 35 | 89 | 1.6 | 8.0 | 0.00 | 0.03 | 0.00 | 44 | 1015.3 |
| 20260901203853 | 35 | 88 | 3.2 | 8.0 | 0.00 | 0.03 | 0.00 | 43 | 1015.4 |
| 20260901203117 | 35 | 172 | 3.2 | 12.9 | 0.00 | 0.03 | 0.00 | 43 | 1015.6 |
| 20260901202610 | 35 | 169 | 3.2 | 12.9 | 0.00 | 0.03 | 0.00 | 43 | 1015.7 |
| 20260901202337 | 35 | 180 | 3.2 | 11.3 | 0.00 | 0.03 | 0.00 | 43 | 1015.7 |
| 20260901201559 | 35 | 80 | 1.6 | 11.3 | 0.00 | 0.03 | 0.00 | 44 | 1015.8 |
| 20260901201053 | 35 | 102 | 1.6 | 9.7 | 0.00 | 0.03 | 0.00 | 44 | 1015.8 |
| 20260901200547 | 34 | 123 | 3.2 | 9.7 | 0.00 | 0.03 | 0.00 | 44 | 1015.9 |
| 20260901200041 | 35 | 49 | 3.2 | 11.3 | 0.00 | 0.03 | 0.00 | 44 | 1016.1 |
| 20260901195534 | 35 | 132 | 3.2 | 11.3 | 0.00 | 0.03 | 0.00 | 44 | 1016.1 |
| 20260901195029 | 35 | 111 | 1.6 | 9.7 | 0.00 | 0.03 | 0.00 | 43 | 1016.1 |
| 20260901194754 | 35 | 286 | 1.6 | 9.7 | 0.00 | 0.03 | 0.00 | 44 | 1016.1 |
| 20260901194017 | 35 | 107 | 3.2 | 11.3 | 0.00 | 0.03 | 0.00 | 44 | 1016.2 |
| 20260901193742 | 35 | 128 | 1.6 | 11.3 | 0.00 | 0.03 | 0.00 | 45 | 1016.3 |
| 20260901193005 | 34 | 128 | 1.6 | 8.0 | 0.00 | 0.03 | 0.00 | 45 | 1016.3 |
| 20260901192459 | 34 | 168 | 3.2 | 14.5 | 0.00 | 0.03 | 0.00 | 44 | 1016.4 |
| 20260901191953 | 34 | 167 | 3.2 | 14.5 | 0.00 | 0.03 | 0.00 | 44 | 1016.5 |
| 20260901191447 | 34 | 111 | 1.6 | 11.3 | 0.00 | 0.03 | 0.00 | 45 | 1016.5 |
| 20260901190941 | 34 | 214 | 3.2 | 12.9 | 0.00 | 0.03 | 0.00 | 45 | 1016.6 |
| 20260901190705 | 34 | 234 | 3.2 | 12.9 | 0.00 | 0.03 | 0.00 | 46 | 1016.7 |
| 20260901185929 | 34 | 153 | 3.2 | 9.7 | 0.00 | 0.03 | 0.00 | 45 | 1016.8 |
| 20260901185423 | 34 | 101 | 3.2 | 9.7 | 0.00 | 0.03 | 0.00 | 46 | 1016.9 |
| 20260901184917 | 34 | 135 | 1.6 | 11.3 | 0.00 | 0.03 | 0.00 | 47 | 1017.0 |
| 20260901184411 | 33 | 134 | 1.6 | 11.3 | 0.00 | 0.03 | 0.00 | 46 | 1017.1 |
| 20260901184136 | 33 | 217 | 3.2 | 12.9 | 0.00 | 0.03 | 0.00 | 45 | 1017.1 |
| 20260901183359 | 33 | 219 | 4.8 | 14.5 | 0.00 | 0.03 | 0.00 | 45 | 1017.2 |
| 20260901182853 | 34 | 150 | 3.2 | 16.1 | 0.00 | 0.03 | 0.00 | 44 | 1017.4 |
| 20260901182617 | 33 | 172 | 1.6 | 16.1 | 0.00 | 0.03 | 0.00 | 47 | 1017.4 |
| 20260901181841 | 33 | 169 | 1.6 | 8.0 | 0.00 | 0.03 | 0.00 | 50 | 1017.5 |
| 20260901181335 | 33 | 240 | 3.2 | 9.7 | 0.00 | 0.03 | 0.00 | 47 | 1017.5 |
| 20260901180829 | 33 | 165 | 4.8 | 12.9 | 0.00 | 0.03 | 0.00 | 45 | 1017.7 |
| 20260901180323 | 33 | 165 | 3.2 | 12.9 | 0.00 | 0.03 | 0.00 | 49 | 1017.8 |
| 20260901175817 | 33 | 219 | 3.2 | 9.7 | 0.00 | 0.03 | 0.00 | 50 | 1017.8 |
| 20260901175311 | 33 | 185 | 1.6 | 11.3 | 0.00 | 0.03 | 0.00 | 50 | 1017.9 |
| 20260901174805 | 33 | 149 | 3.2 | 11.3 | 0.00 | 0.03 | 0.00 | 49 | 1018.1 |
| 20260901174259 | 32 | 129 | 3.2 | 12.9 | 0.00 | 0.03 | 0.00 | 50 | 1018.1 |
| 20260901173753 | 32 | 128 | 3.2 | 12.9 | 0.00 | 0.03 | 0.00 | 50 | 1018.1 |
| 20260901173246 | 33 | 109 | 3.2 | 11.3 | 0.00 | 0.03 | 0.00 | 51 | 1018.2 |
| 20260901172741 | 33 | 124 | 1.6 | 11.3 | 0.00 | 0.03 | 0.00 | 49 | 1018.2 |
| 20260901172236 | 32 | 112 | 1.6 | 6.4 | 0.00 | 0.03 | 0.00 | 51 | 1018.4 |
| 20260901171729 | 32 | 140 | 3.2 | 14.5 | 0.00 | 0.03 | 0.00 | 51 | 1018.3 |
| 20260901171223 | 32 | 142 | 4.8 | 14.5 | 0.00 | 0.03 | 0.00 | 49 | 1018.4 |
| 20260901170717 | 32 | 149 | 1.6 | 12.9 | 0.00 | 0.03 | 0.00 | 52 | 1018.4 |
| 20260901170211 | 32 | 129 | 0.0 | 4.8 | 0.00 | 0.03 | 0.00 | 54 | 1018.5 |
| 20260901165705 | 32 | 129 | 1.6 | 9.7 | 0.00 | 0.03 | 0.00 | 52 | 1018.5 |
| 20260901165429 | 32 | 129 | 1.6 | 9.7 | 0.00 | 0.03 | 0.00 | 51 | 1018.6 |
| 20260901164653 | 32 | 125 | 1.6 | 9.7 | 0.00 | 0.03 | 0.00 | 54 | 1018.6 |
| 20260901163641 | 31 | 0 | 1.6 | 8.0 | 0.00 | 0.03 | 0.00 | 55 | 1018.5 |
| 20260901163135 | 31 | 166 | 1.6 | 8.0 | 0.00 | 0.03 | 0.00 | 57 | 1018.4 |
| 20260901162629 | 31 | 165 | 1.6 | 6.4 | 0.00 | 0.03 | 0.00 | 60 | 1018.4 |
| 20260901162122 | 31 | 167 | 3.2 | 11.3 | 0.00 | 0.03 | 0.00 | 57 | 1018.6 |
| 20260901161618 | 31 | 167 | 3.2 | 11.3 | 0.00 | 0.03 | 0.00 | 55 | 1018.7 |
| 20260901161341 | 31 | 107 | 1.6 | 9.7 | 0.00 | 0.03 | 0.00 | 58 | 1018.7 |
| 20260901160611 | 31 | 109 | 1.6 | 8.0 | 0.00 | 0.03 | 0.00 | 61 | 1018.6 |
| 20260901160111 | 31 | 140 | 1.6 | 9.7 | 0.00 | 0.03 | 0.00 | 61 | 1018.6 |
| 20260901155839 | 31 | 165 | 1.6 | 9.7 | 0.00 | 0.03 | 0.00 | 62 | 1018.5 |
| 20260901155109 | 31 | 164 | 1.6 | 6.4 | 0.00 | 0.03 | 0.00 | 63 | 1018.5 |
| 20260901154609 | 30 | 165 | 1.6 | 9.7 | 0.00 | 0.03 | 0.00 | 64 | 1018.6 |
| 20260901153609 | 30 | 111 | 1.6 | 8.0 | 0.00 | 0.03 | 0.00 | 64 | 1018.5 |
| 20260901153108 | 30 | 128 | 1.6 | 6.4 | 0.00 | 0.03 | 0.00 | 64 | 1018.5 |
| 20260901152609 | 30 | 131 | 1.6 | 9.7 | 0.00 | 0.03 | 0.00 | 67 | 1018.5 |
| 20260901152105 | 30 | 132 | 1.6 | 9.7 | 0.00 | 0.03 | 0.00 | 66 | 1018.5 |
| 20260901151605 | 30 | 167 | 0.0 | 8.0 | 0.00 | 0.03 | 0.00 | 68 | 1018.4 |
| 20260901151105 | 30 | 169 | 0.0 | 6.4 | 0.00 | 0.03 | 0.00 | 69 | 1018.5 |
| 20260901150604 | 29 | 169 | 0.0 | 8.0 | 0.00 | 0.03 | 0.00 | 69 | 1018.5 |
| 20260901150104 | 29 | 169 | 1.6 | 8.0 | 0.00 | 0.03 | 0.00 | 69 | 1018.5 |
| 20260901145104 | 28 | 123 | 1.6 | 8.0 | 0.00 | 0.03 | 0.00 | 70 | 1018.5 |
| 20260901144605 | 28 | 159 | 3.2 | 9.7 | 0.00 | 0.03 | 0.00 | 70 | 1018.5 |
| 20260901144105 | 28 | 162 | 1.6 | 9.7 | 0.00 | 0.03 | 0.00 | 71 | 1018.5 |
| 20260901143604 | 28 | 162 | 0.0 | 8.0 | 0.00 | 0.03 | 0.00 | 75 | 1018.5 |
| 20260901143104 | 28 | 163 | 0.0 | 0.0 | 0.00 | 0.03 | 0.00 | 76 | 1018.5 |
| 20260901142605 | 28 | 163 | 0.0 | 3.2 | 0.00 | 0.03 | 0.00 | 75 | 1018.4 |
| 20260901142101 | 28 | 163 | 1.6 | 3.2 | 0.00 | 0.03 | 0.00 | 76 | 1018.4 |
| 20260901141558 | 28 | 163 | 1.6 | 8.0 | 0.00 | 0.03 | 0.00 | 77 | 1018.5 |
| 20260901141057 | 28 | 163 | 0.0 | 8.0 | 0.00 | 0.03 | 0.00 | 78 | 1018.4 |
| 20260901140828 | 27 | 164 | 0.0 | 0.0 | 0.00 | 0.03 | 0.00 | 78 | 1018.5 |
| 20260901140056 | 27 | 164 | 0.0 | 0.0 | 0.00 | 0.03 | 0.00 | 79 | 1018.5 |
| 20260901135555 | 27 | 164 | 0.0 | 0.0 | 0.00 | 0.03 | 0.00 | 81 | 1018.5 |
| 20260901135055 | 27 | 164 | 0.0 | 0.0 | 0.00 | 0.03 | 0.00 | 81 | 1018.5 |
| 20260901134555 | 27 | 164 | 0.0 | 0.0 | 0.00 | 0.03 | 0.00 | 83 | 1018.3 |
| 20260901134053 | 26 | 164 | 0.0 | 0.0 | 0.00 | 0.03 | 0.00 | 84 | 1018.3 |
| 20260901133551 | 26 | 164 | 0.0 | 0.0 | 0.00 | 0.03 | 0.00 | 84 | 1018.3 |
| 20260901133321 | 26 | 164 | 0.0 | 0.0 | 0.00 | 0.03 | 0.00 | 85 | 1018.3 |
| 20260901132551 | 26 | 164 | 0.0 | 0.0 | 0.00 | 0.03 | 0.00 | 86 | 1018.3 |
| 20260901132049 | 25 | 164 | 0.0 | 0.0 | 0.00 | 0.03 | 0.00 | 88 | 1018.3 |
| 20260901131547 | 25 | 164 | 0.0 | 0.0 | 0.00 | 0.03 | 0.00 | 89 | 1018.3 |
| 20260901131046 | 24 | 164 | 0.0 | 0.0 | 0.00 | 0.03 | 0.00 | 90 | 1018.2 |
| 20260901130540 | 24 | 164 | 0.0 | 0.0 | 0.00 | 0.03 | 0.00 | 91 | 1018.1 |
| 20260901130033 | 23 | 164 | 0.0 | 0.0 | 0.00 | 0.03 | 0.00 | 91 | 1018.1 |
| 20260901125758 | 23 | 164 | 0.0 | 0.0 | 0.00 | 0.03 | 0.00 | 91 | 1017.9 |
| 20260901125021 | 23 | 164 | 0.0 | 0.0 | 0.00 | 0.03 | 0.00 | 91 | 1017.9 |
| 20260901124516 | 23 | 164 | 0.0 | 0.0 | 0.00 | 0.03 | 0.00 | 90 | 1017.9 |
| 20260901124010 | 23 | 164 | 0.0 | 0.0 | 0.00 | 0.03 | 0.00 | 90 | 1017.8 |
| 20260901123504 | 23 | 164 | 0.0 | 0.0 | 0.00 | 0.03 | 0.00 | 90 | 1017.9 |
| 20260901122958 | 23 | 164 | 0.0 | 0.0 | 0.00 | 0.03 | 0.00 | 90 | 1017.8 |
| 20260901122452 | 23 | 164 | 0.0 | 0.0 | 0.00 | 0.03 | 0.00 | 90 | 1017.8 |
| 20260901121946 | 23 | 164 | 0.0 | 0.0 | 0.00 | 0.03 | 0.00 | 90 | 1017.8 |
| 20260901121440 | 23 | 164 | 0.0 | 0.0 | 0.00 | 0.03 | 0.00 | 90 | 1017.8 |
| 20260901120934 | 23 | 164 | 0.0 | 0.0 | 0.00 | 0.03 | 0.00 | 90 | 1017.8 |
| 20260901115922 | 24 | 164 | 0.0 | 0.0 | 0.00 | 0.03 | 0.00 | 90 | 1017.7 |
| 20260901115416 | 24 | 164 | 0.0 | 0.0 | 0.00 | 0.03 | 0.00 | 90 | 1017.8 |
| 20260901114910 | 24 | 164 | 0.0 | 0.0 | 0.00 | 0.03 | 0.00 | 90 | 1017.8 |
| 20260901114634 | 24 | 164 | 0.0 | 0.0 | 0.00 | 0.03 | 0.00 | 90 | 1017.8 |
| 20260901114128 | 24 | 164 | 0.0 | 0.0 | 0.00 | 0.03 | 0.00 | 89 | 1017.8 |
| 20260901113352 | 24 | 164 | 0.0 | 0.0 | 0.00 | 0.03 | 0.00 | 89 | 1017.8 |
| 20260901113116 | 24 | 164 | 0.0 | 0.0 | 0.00 | 0.03 | 0.00 | 89 | 1017.8 |
| 20260901112340 | 24 | 164 | 0.0 | 0.0 | 0.00 | 0.03 | 0.00 | 88 | 1017.8 |
| 20260901112105 | 24 | 164 | 0.0 | 0.0 | 0.00 | 0.03 | 0.00 | 89 | 1017.6 |
| 20260901111327 | 24 | 164 | 0.0 | 0.0 | 0.00 | 0.03 | 0.00 | 89 | 1017.6 |
| 20260901110821 | 25 | 164 | 0.0 | 0.0 | 0.00 | 0.03 | 0.00 | 88 | 1017.6 |
| 20260901110316 | 25 | 164 | 0.0 | 0.0 | 0.00 | 0.03 | 0.00 | 88 | 1017.6 |
| 20260901110040 | 25 | 164 | 0.0 | 0.0 | 0.00 | 0.03 | 0.00 | 88 | 1017.6 |
| 20260901105305 | 25 | 164 | 0.0 | 0.0 | 0.00 | 0.03 | 0.00 | 88 | 1017.6 |
| 20260901105028 | 25 | 164 | 0.0 | 0.0 | 0.00 | 0.03 | 0.00 | 88 | 1017.6 |
| 20260901104252 | 25 | 164 | 0.0 | 0.0 | 0.00 | 0.03 | 0.00 | 88 | 1017.6 |
| 20260901103746 | 25 | 164 | 0.0 | 3.2 | 0.00 | 0.03 | 0.00 | 88 | 1017.6 |
| 20260901103240 | 25 | 164 | 0.0 | 3.2 | 0.00 | 0.03 | 0.00 | 88 | 1017.7 |
| 20260901102734 | 25 | 164 | 0.0 | 6.4 | 0.00 | 0.03 | 0.00 | 87 | 1017.7 |
| 20260901102228 | 25 | 164 | 0.0 | 6.4 | 0.00 | 0.03 | 0.00 | 87 | 1017.7 |
| 20260901101722 | 25 | 163 | 0.0 | 3.2 | 0.00 | 0.03 | 0.00 | 87 | 1017.7 |
| 20260901101216 | 25 | 163 | 0.0 | 1.6 | 0.00 | 0.03 | 0.00 | 87 | 1017.7 |
| 20260901100214 | 25 | 163 | 0.0 | 8.0 | 0.00 | 0.03 | 0.00 | 87 | 1017.8 |
| 20260901095714 | 25 | 162 | 0.0 | 3.2 | 0.00 | 0.03 | 0.00 | 87 | 1017.7 |
| 20260901095214 | 25 | 162 | 0.0 | 6.4 | 0.00 | 0.03 | 0.00 | 86 | 1017.8 |
| 20260901094714 | 25 | 161 | 0.0 | 6.4 | 0.00 | 0.03 | 0.00 | 86 | 1017.7 |
| 20260901094214 | 25 | 161 | 0.0 | 6.4 | 0.00 | 0.03 | 0.00 | 86 | 1017.6 |
| 20260901093714 | 25 | 161 | 1.6 | 6.4 | 0.00 | 0.03 | 0.00 | 86 | 1017.6 |
| 20260901093213 | 25 | 161 | 1.6 | 6.4 | 0.00 | 0.03 | 0.00 | 86 | 1017.7 |
| 20260901092714 | 25 | 161 | 1.6 | 8.0 | 0.00 | 0.03 | 0.00 | 86 | 1017.8 |
| 20260901092214 | 25 | 161 | 0.0 | 8.0 | 0.00 | 0.03 | 0.00 | 86 | 1017.8 |
| 20260901091714 | 25 | 160 | 1.6 | 8.0 | 0.00 | 0.03 | 0.00 | 86 | 1017.8 |
| 20260901091444 | 25 | 160 | 1.6 | 8.0 | 0.00 | 0.03 | 0.00 | 86 | 1017.8 |
| 20260901090714 | 25 | 159 | 0.0 | 3.2 | 0.00 | 0.03 | 0.00 | 85 | 1017.9 |
| 20260901090214 | 25 | 159 | 0.0 | 3.2 | 0.00 | 0.03 | 0.00 | 85 | 1017.9 |
| 20260901085710 | 25 | 159 | 0.0 | 3.2 | 0.00 | 0.03 | 0.00 | 85 | 1017.9 |
| 20260901085210 | 25 | 159 | 0.0 | 3.2 | 0.00 | 0.03 | 0.00 | 85 | 1017.9 |
| 20260901084710 | 25 | 159 | 0.0 | 3.2 | 0.00 | 0.03 | 0.00 | 85 | 1017.9 |
| 20260901084441 | 25 | 159 | 1.6 | 6.4 | 0.00 | 0.03 | 0.00 | 85 | 1017.9 |
| 20260901083710 | 25 | 159 | 0.0 | 8.0 | 0.00 | 0.03 | 0.00 | 85 | 1017.8 |
| 20260901083210 | 25 | 159 | 0.0 | 8.0 | 0.00 | 0.03 | 0.00 | 84 | 1017.9 |
| 20260901082940 | 25 | 159 | 0.0 | 6.4 | 0.00 | 0.03 | 0.00 | 84 | 1017.9 |
| 20260901082210 | 25 | 159 | 0.0 | 6.4 | 0.00 | 0.03 | 0.00 | 84 | 1017.8 |
| 20260901081710 | 25 | 159 | 1.6 | 6.4 | 0.00 | 0.03 | 0.00 | 83 | 1017.9 |
| 20260901081210 | 25 | 158 | 1.6 | 8.0 | 0.00 | 0.03 | 0.00 | 83 | 1017.8 |
| 20260901080710 | 26 | 158 | 1.6 | 8.0 | 0.00 | 0.03 | 0.00 | 83 | 1017.8 |
| 20260901080210 | 26 | 158 | 1.6 | 9.7 | 0.00 | 0.03 | 0.00 | 83 | 1017.7 |
| 20260901075707 | 26 | 158 | 3.2 | 9.7 | 0.00 | 0.03 | 0.00 | 83 | 1017.7 |
| 20260901075207 | 26 | 159 | 3.2 | 9.7 | 0.00 | 0.03 | 0.00 | 82 | 1017.7 |
| 20260901074707 | 26 | 157 | 3.2 | 11.3 | 0.00 | 0.03 | 0.00 | 82 | 1017.8 |
| 20260901074206 | 26 | 157 | 3.2 | 11.3 | 0.00 | 0.03 | 0.00 | 82 | 1017.7 |
| 20260901073936 | 26 | 155 | 1.6 | 9.7 | 0.00 | 0.03 | 0.00 | 81 | 1017.7 |
| 20260901073206 | 26 | 167 | 1.6 | 9.7 | 0.00 | 0.03 | 0.00 | 81 | 1017.8 |
| 20260901072704 | 26 | 171 | 1.6 | 9.7 | 0.00 | 0.03 | 0.00 | 80 | 1017.8 |
| 20260901072204 | 26 | 180 | 3.2 | 8.0 | 0.00 | 0.03 | 0.00 | 80 | 1017.8 |
| 20260901071935 | 26 | 216 | 3.2 | 8.0 | 0.00 | 0.03 | 0.00 | 79 | 1017.9 |
| 20260901071203 | 26 | 167 | 1.6 | 8.0 | 0.00 | 0.03 | 0.00 | 79 | 1018.1 |
| 20260901070149 | 26 | 167 | 3.2 | 9.7 | 0.00 | 0.03 | 0.00 | 78 | 1018.1 |
| 20260901065643 | 26 | 167 | 3.2 | 9.7 | 0.00 | 0.03 | 0.00 | 78 | 1017.9 |
| 20260901065137 | 26 | 166 | 3.2 | 11.3 | 0.00 | 0.03 | 0.00 | 78 | 1017.8 |
| 20260901064631 | 26 | 165 | 3.2 | 11.3 | 0.00 | 0.03 | 0.00 | 77 | 1017.7 |
| 20260901064355 | 26 | 200 | 3.2 | 12.9 | 0.00 | 0.03 | 0.00 | 77 | 1017.7 |
| 20260901063619 | 26 | 171 | 3.2 | 12.9 | 0.00 | 0.03 | 0.00 | 77 | 1017.7 |
| 20260901063113 | 26 | 207 | 1.6 | 11.3 | 0.00 | 0.03 | 0.00 | 76 | 1017.7 |
| 20260901062606 | 27 | 164 | 3.2 | 8.0 | 0.00 | 0.03 | 0.00 | 76 | 1017.7 |
| 20260901062101 | 27 | 164 | 3.2 | 11.3 | 0.00 | 0.03 | 0.00 | 76 | 1017.7 |
| 20260901061554 | 27 | 164 | 3.2 | 11.3 | 0.00 | 0.03 | 0.00 | 75 | 1017.6 |
| 20260901061053 | 27 | 163 | 1.6 | 9.7 | 0.00 | 0.03 | 0.00 | 75 | 1017.6 |
| 20260901060554 | 27 | 158 | 3.2 | 9.7 | 0.00 | 0.03 | 0.00 | 74 | 1017.6 |
| 20260901060054 | 27 | 164 | 3.2 | 9.7 | 0.00 | 0.03 | 0.00 | 74 | 1017.5 |
| 20260901055552 | 27 | 168 | 3.2 | 9.7 | 0.00 | 0.03 | 0.00 | 73 | 1017.5 |
| 20260901055049 | 27 | 169 | 3.2 | 12.9 | 0.00 | 0.03 | 0.00 | 73 | 1017.3 |
| 20260901054549 | 27 | 148 | 1.6 | 12.9 | 0.00 | 0.03 | 0.00 | 72 | 1017.4 |
| 20260901054049 | 27 | 146 | 1.6 | 8.0 | 0.00 | 0.03 | 0.00 | 72 | 1017.4 |
| 20260901053547 | 27 | 145 | 1.6 | 11.3 | 0.00 | 0.03 | 0.00 | 72 | 1017.4 |
| 20260901053045 | 27 | 145 | 3.2 | 11.3 | 0.00 | 0.03 | 0.00 | 71 | 1017.3 |
| 20260901052543 | 27 | 145 | 3.2 | 11.3 | 0.00 | 0.03 | 0.00 | 71 | 1017.3 |
| 20260901052042 | 27 | 157 | 4.8 | 11.3 | 0.00 | 0.03 | 0.00 | 71 | 1017.2 |
| 20260901051539 | 27 | 148 | 3.2 | 11.3 | 0.00 | 0.03 | 0.00 | 71 | 1017.2 |
| 20260901051037 | 27 | 162 | 3.2 | 12.9 | 0.00 | 0.03 | 0.00 | 71 | 1017.3 |
| 20260901050810 | 27 | 150 | 3.2 | 12.9 | 0.00 | 0.03 | 0.00 | 70 | 1017.2 |
| 20260901050037 | 27 | 161 | 3.2 | 9.7 | 0.00 | 0.03 | 0.00 | 70 | 1017.3 |
| 20260901045536 | 28 | 158 | 3.2 | 14.5 | 0.00 | 0.03 | 0.03 | 70 | 1017.2 |
| 20260901045036 | 28 | 158 | 1.6 | 14.5 | 0.00 | 0.03 | 0.03 | 69 | 1017.3 |
| 20260901044533 | 28 | 134 | 1.6 | 6.4 | 0.00 | 0.03 | 0.03 | 69 | 1017.2 |
| 20260901044032 | 28 | 134 | 1.6 | 6.4 | 0.00 | 0.03 | 0.03 | 69 | 1017.1 |
| 20260901043532 | 28 | 134 | 1.6 | 11.3 | 0.00 | 0.03 | 0.03 | 69 | 1017.0 |
| 20260901043033 | 28 | 154 | 1.6 | 11.3 | 0.00 | 0.03 | 0.03 | 69 | 1017.1 |
| 20260901042533 | 28 | 188 | 1.6 | 4.8 | 0.00 | 0.03 | 0.03 | 69 | 1017.0 |
| 20260901042033 | 28 | 188 | 0.0 | 4.8 | 0.00 | 0.03 | 0.03 | 69 | 1017.0 |
| 20260901041533 | 28 | 189 | 1.6 | 8.0 | 0.00 | 0.03 | 0.03 | 69 | 1016.9 |
| 20260901040804 | 28 | 195 | 3.2 | 11.3 | 0.00 | 0.03 | 0.03 | 69 | 1016.7 |
| 20260901040026 | 28 | 169 | 1.6 | 9.7 | 0.00 | 0.03 | 0.03 | 69 | 1016.8 |
| 20260901035520 | 28 | 177 | 3.2 | 11.3 | 0.00 | 0.03 | 0.03 | 69 | 1016.7 |
| 20260901035014 | 28 | 155 | 3.2 | 14.5 | 0.00 | 0.03 | 0.03 | 70 | 1016.7 |
| 20260901034508 | 28 | 161 | 3.2 | 14.5 | 0.00 | 0.03 | 0.03 | 70 | 1016.6 |
| 20260901034005 | 28 | 164 | 1.6 | 11.3 | 0.00 | 0.03 | 0.03 | 71 | 1016.6 |
| 20260901033735 | 28 | 132 | 1.6 | 11.3 | 0.00 | 0.03 | 0.03 | 71 | 1016.6 |
| 20260901033236 | 28 | 120 | 1.6 | 11.3 | 0.00 | 0.03 | 0.03 | 71 | 1016.6 |
| 20260901032505 | 28 | 182 | 1.6 | 8.0 | 0.03 | 0.03 | 0.03 | 72 | 1016.6 |
| 20260901032003 | 28 | 182 | 1.6 | 9.7 | 0.03 | 0.03 | 0.03 | 72 | 1016.6 |
| 20260901031504 | 28 | 189 | 3.2 | 14.5 | 0.03 | 0.03 | 0.03 | 72 | 1016.5 |
| 20260901031004 | 27 | 196 | 3.2 | 14.5 | 0.03 | 0.03 | 0.03 | 73 | 1016.5 |
| 20260901030733 | 27 | 192 | 3.2 | 9.7 | 0.03 | 0.03 | 0.03 | 74 | 1016.4 |
| 20260901030004 | 27 | 150 | 1.6 | 9.7 | 0.03 | 0.03 | 0.03 | 75 | 1016.3 |
| 20260901025500 | 27 | 117 | 1.6 | 9.7 | 0.03 | 0.03 | 0.03 | 76 | 1016.4 |
| 20260901024456 | 27 | 144 | 1.6 | 8.0 | 0.03 | 0.03 | 0.03 | 76 | 1016.1 |
| 20260901023956 | 28 | 171 | 1.6 | 8.0 | 0.03 | 0.03 | 0.03 | 75 | 1016.0 |
| 20260901023456 | 28 | 175 | 1.6 | 6.4 | 0.03 | 0.03 | 0.03 | 74 | 1015.9 |
| 20260901022959 | 29 | 176 | 4.8 | 16.1 | 0.03 | 0.03 | 0.03 | 70 | 1015.8 |
| 20260901022456 | 31 | 165 | 6.4 | 16.1 | 0.00 | 0.00 | 0.00 | 66 | 1015.7 |
| 20260901021956 | 31 | 195 | 3.2 | 16.1 | 0.00 | 0.00 | 0.00 | 58 | 1015.7 |
| 20260901021728 | 31 | 104 | 3.2 | 11.3 | 0.00 | 0.00 | 0.00 | 56 | 1015.5 |
| 20260901020950 | 31 | 96 | 3.2 | 11.3 | 0.00 | 0.00 | 0.00 | 56 | 1015.4 |
| 20260901020444 | 31 | 92 | 3.2 | 12.9 | 0.00 | 0.00 | 0.00 | 55 | 1015.3 |
| 20260901015938 | 31 | 110 | 3.2 | 16.1 | 0.00 | 0.00 | 0.00 | 54 | 1015.2 |
| 20260901015432 | 31 | 93 | 1.6 | 16.1 | 0.00 | 0.00 | 0.00 | 53 | 1015.0 |